KMLB/MLB METAR and TAF weather

Enter ICAO airport designator
Station Type Date Time Source
KMLB METAR 2024/05/28 22:53 UTC NOAA

KMLB 282253Z 11009KT 10SM FEW060 29/23 A2996 RMK AO2 LTG DSNT NW SLP144 T02940228


Station Type Date Time Source
KMLB Decoded METAR 2024/05/28 22:53 UTC NOAA

MELBOURNE INTERNATIONAL, FL, United States (KMLB) 28-06N 080-39W 10M
May 28, 2024 - 06:53 PM EDT / 2024.05.28 2253 UTC
Wind: from the ESE (110 degrees) at 10 MPH (9 KT):0
Visibility: 10 mile(s):0
Sky conditions: mostly clear
Weather: Lightning observed
Temperature: 84.9 F (29.4 C)
Dew Point: 73.0 F (22.8 C)
Relative Humidity: 67%
Pressure (altimeter): 29.96 in. Hg (1014 hPa)
ob: KMLB 282253Z 11009KT 10SM FEW060 29/23 A2996 RMK AO2 LTG DSNT NW SLP144 T02940228
cycle: 23

Station Type Date Time Source
KMLB TAF 2024/05/28 20:12 UTC NOAA